createdAt,value
2019-02-22T00:00:51.445Z,100811.27
2019-02-22T00:03:20.134Z,100808.80
2019-02-22T00:05:49.110Z,100808.80
2019-02-22T00:08:18.070Z,100813.64
2019-02-22T00:10:46.523Z,100812.76
2019-02-22T00:13:15.076Z,100821.13
2019-02-22T00:15:43.454Z,100830.77
2019-02-22T00:18:11.870Z,100831.66
2019-02-22T00:20:41.259Z,100826.63
2019-02-22T00:23:09.835Z,100829.23
2019-02-22T00:25:38.220Z,100832.63
2019-02-22T00:28:06.659Z,100825.59
2019-02-22T00:30:35.154Z,100830.25
2019-02-22T00:33:03.537Z,100827.13
2019-02-22T00:35:31.927Z,100828.61
2019-02-22T00:38:00.273Z,100833.63
2019-02-22T00:43:14.397Z,100835.08
2019-02-22T00:45:42.747Z,100834.47
2019-02-22T00:48:11.126Z,100837.33
2019-02-22T00:50:39.479Z,100826.91
2019-02-22T00:53:07.866Z,100836.48
2019-02-22T00:55:36.489Z,100833.23
2019-02-22T00:58:05.102Z,100834.97
2019-02-22T01:00:33.523Z,100835.19
2019-02-22T01:03:01.921Z,100830.00
2019-02-22T01:05:30.275Z,100827.70
2019-02-22T01:07:58.661Z,100820.89
2019-02-22T01:10:31.217Z,100829.78
2019-02-22T01:12:57.189Z,100825.58
2019-02-22T01:15:25.545Z,100822.65
2019-02-22T01:17:53.926Z,100824.97
2019-02-22T01:20:22.277Z,100823.31
2019-02-22T01:22:50.658Z,100818.98
2019-02-22T01:25:19.023Z,100813.33
2019-02-22T01:27:47.419Z,100818.23
2019-02-22T01:30:15.774Z,100826.42
2019-02-22T01:32:44.155Z,100826.03
2019-02-22T01:35:12.646Z,100826.89
2019-02-22T01:37:41.031Z,100825.44
2019-02-22T01:40:10.421Z,100823.81
2019-02-22T01:42:38.916Z,100819.08
2019-02-22T01:45:08.022Z,100819.22
2019-02-22T01:47:36.384Z,100812.23
2019-02-22T01:50:06.198Z,100807.53
2019-02-22T01:52:34.545Z,100810.95
2019-02-22T01:55:03.016Z,100809.89
2019-02-22T01:57:31.371Z,100809.14
2019-02-22T01:59:59.825Z,100811.40
2019-02-22T02:02:28.173Z,100812.18
2019-02-22T02:04:56.563Z,100820.83
2019-02-22T02:07:26.456Z,100821.30
2019-02-22T02:09:54.837Z,100823.63
2019-02-22T02:12:23.189Z,100827.13
2019-02-22T02:14:51.569Z,100824.52
2019-02-22T02:17:19.922Z,100829.73
2019-02-22T02:19:48.301Z,100830.30
2019-02-22T02:22:16.659Z,100831.28
2019-02-22T02:24:45.152Z,100833.66
2019-02-22T02:27:13.917Z,100832.89
2019-02-22T02:29:42.372Z,100836.69
2019-02-22T02:32:10.725Z,100833.59
2019-02-22T02:34:39.136Z,100832.14
2019-02-22T02:37:07.489Z,100831.72
2019-02-22T02:39:35.885Z,100832.93
2019-02-22T02:42:04.294Z,100830.52
2019-02-22T02:44:32.686Z,100829.28
2019-02-22T02:47:01.041Z,100824.19
2019-02-22T02:49:30.103Z,100826.92
2019-02-22T02:51:58.736Z,100823.70
2019-02-22T02:54:27.127Z,100820.22
2019-02-22T02:56:55.462Z,100829.80
2019-02-22T02:59:23.882Z,100833.22
2019-02-22T03:01:52.268Z,100827.30
2019-02-22T03:04:20.613Z,100823.02
2019-02-22T03:06:53.316Z,100829.10
2019-02-22T03:09:21.677Z,100821.23
2019-02-22T03:11:50.058Z,100823.61
2019-02-22T03:14:18.419Z,100831.71
2019-02-22T03:16:46.784Z,100831.29
2019-02-22T03:19:15.195Z,100832.59
2019-02-22T03:21:43.571Z,100833.22
2019-02-22T03:24:11.925Z,100826.27
2019-02-22T03:26:40.987Z,100825.27
2019-02-22T03:29:09.348Z,100820.98
2019-02-22T03:31:38.062Z,100833.17
2019-02-22T03:34:06.408Z,100840.14
2019-02-22T03:36:34.784Z,100836.66
2019-02-22T03:39:04.847Z,100841.48
2019-02-22T03:41:33.682Z,100841.28
2019-02-22T03:44:02.203Z,100843.17
2019-02-22T03:46:30.589Z,100852.08
2019-02-22T03:49:04.869Z,100843.68
2019-02-22T03:51:33.250Z,100846.38
2019-02-22T03:54:01.597Z,100846.66
2019-02-22T03:56:30.052Z,100853.30
2019-02-22T03:58:58.669Z,100857.30
2019-02-22T04:01:27.136Z,100861.11
2019-02-22T04:03:55.484Z,100863.08
2019-02-22T04:06:23.956Z,100864.70
2019-02-22T04:08:52.283Z,100874.57
2019-02-22T04:11:20.742Z,100873.49
2019-02-22T04:13:49.087Z,100874.59
2019-02-22T04:16:17.484Z,100877.58
2019-02-22T04:18:45.829Z,100875.05
2019-02-22T04:21:14.509Z,100883.53
2019-02-22T04:23:42.894Z,100878.30
2019-02-22T04:26:11.698Z,100884.02
2019-02-22T04:28:40.080Z,100886.22
2019-02-22T04:31:08.423Z,100904.41
2019-02-22T04:33:36.867Z,100906.62
2019-02-22T04:36:05.286Z,100902.59
2019-02-22T04:38:33.750Z,100901.74
2019-02-22T04:41:02.164Z,100906.02
2019-02-22T04:43:30.545Z,100918.22
2019-02-22T04:46:00.056Z,100918.28
2019-02-22T04:48:28.561Z,100918.42
2019-02-22T04:50:56.898Z,100911.75
2019-02-22T04:53:25.420Z,100909.80
2019-02-22T04:55:53.764Z,100907.98
2019-02-22T04:58:22.813Z,100913.91
2019-02-22T05:00:51.304Z,100910.77
2019-02-22T05:03:19.687Z,100913.38
2019-02-22T05:05:48.028Z,100913.86
2019-02-22T05:08:16.416Z,100927.57
2019-02-22T05:10:44.776Z,100928.44
2019-02-22T05:13:13.663Z,100929.20
2019-02-22T05:15:42.039Z,100924.06
2019-02-22T05:18:10.559Z,100929.94
2019-02-22T05:20:38.940Z,100926.31
2019-02-22T05:23:07.936Z,100922.20
2019-02-22T05:25:36.266Z,100914.73
2019-02-22T05:28:04.704Z,100916.13
2019-02-22T05:30:33.059Z,100919.05
2019-02-22T05:33:02.940Z,100911.16
2019-02-22T05:35:31.867Z,100919.73
2019-02-22T05:38:00.251Z,100926.11
2019-02-22T05:40:28.593Z,100932.22
2019-02-22T05:42:57.047Z,100931.98
2019-02-22T05:45:25.398Z,100935.81
2019-02-22T05:47:54.347Z,100935.25
2019-02-22T05:50:23.220Z,100935.76
2019-02-22T05:52:52.120Z,100929.23
2019-02-22T05:55:20.612Z,100934.11
2019-02-22T05:57:48.965Z,100931.27
2019-02-22T06:00:18.207Z,100935.39
2019-02-22T06:02:46.563Z,100933.60
2019-02-22T06:05:14.942Z,100932.78
2019-02-22T06:07:43.487Z,100933.09
2019-02-22T06:10:12.194Z,100936.92
2019-02-22T06:12:40.542Z,100941.72
2019-02-22T06:15:09.295Z,100942.91
2019-02-22T06:17:37.640Z,100945.32
2019-02-22T06:20:11.377Z,100937.45
2019-02-22T06:22:39.758Z,100940.67
2019-02-22T06:25:08.419Z,100940.41
2019-02-22T06:27:38.892Z,100943.36
2019-02-22T06:30:10.697Z,100956.00
2019-02-22T06:32:42.098Z,100957.02
2019-02-22T06:35:09.304Z,100956.40
2019-02-22T06:37:37.657Z,100963.33
2019-02-22T06:40:09.208Z,100963.22
2019-02-22T06:42:45.234Z,100970.25
2019-02-22T06:45:09.239Z,100964.45
2019-02-22T06:47:39.002Z,100965.67
2019-02-22T06:50:08.550Z,100971.11
2019-02-22T06:52:36.897Z,100970.70
2019-02-22T06:55:06.038Z,100973.92
2019-02-22T06:57:34.503Z,100973.90
2019-02-22T07:00:04.289Z,100986.16
2019-02-22T07:02:32.647Z,100993.21
2019-02-22T07:05:01.026Z,100999.06
2019-02-22T07:07:29.374Z,101005.74
2019-02-22T07:09:57.751Z,101009.13
2019-02-22T07:12:28.076Z,101019.52
2019-02-22T07:14:56.461Z,101021.13
2019-02-22T07:17:24.808Z,101023.14
2019-02-22T07:19:53.190Z,101034.30
2019-02-22T07:22:21.561Z,101031.05
2019-02-22T07:24:49.940Z,101024.86
2019-02-22T07:27:18.291Z,101027.66
2019-02-22T07:29:46.674Z,101037.20
2019-02-22T07:32:15.026Z,101042.23
2019-02-22T07:34:43.368Z,101044.23
2019-02-22T07:37:11.751Z,101035.58
2019-02-22T07:39:40.097Z,101042.70
2019-02-22T07:42:08.547Z,101051.27
2019-02-22T07:44:36.892Z,101058.03
2019-02-22T07:47:05.265Z,101062.55
2019-02-22T07:49:33.616Z,101062.32
2019-02-22T07:52:02.000Z,101064.64
2019-02-22T07:54:30.348Z,101069.97
2019-02-22T07:56:58.733Z,101069.25
2019-02-22T07:59:27.085Z,101073.22
2019-02-22T08:01:55.540Z,101069.48
2019-02-22T08:04:23.896Z,101064.86
2019-02-22T08:06:52.265Z,101067.23
2019-02-22T08:09:20.617Z,101071.09
2019-02-22T08:11:49.003Z,101071.37
2019-02-22T08:14:17.370Z,101069.08
2019-02-22T08:16:45.749Z,101074.20
2019-02-22T08:19:14.120Z,101071.48
2019-02-22T08:21:42.501Z,101077.45
2019-02-22T08:24:10.848Z,101079.74
2019-02-22T08:26:40.212Z,101084.70
2019-02-22T08:29:08.557Z,101087.77
2019-02-22T08:31:37.003Z,101091.97
2019-02-22T08:34:05.357Z,101094.82
2019-02-22T08:36:33.751Z,101102.06
2019-02-22T08:39:02.102Z,101099.60
2019-02-22T08:41:30.476Z,101106.77
2019-02-22T08:43:58.829Z,101114.13
2019-02-22T08:46:27.210Z,101113.78
2019-02-22T08:48:55.673Z,101117.48
2019-02-22T08:51:24.061Z,101115.55
2019-02-22T08:53:52.414Z,101126.68
2019-02-22T08:56:20.870Z,101121.45
2019-02-22T08:58:49.218Z,101116.41
2019-02-22T09:01:17.609Z,101112.61
2019-02-22T09:03:50.511Z,101119.47
2019-02-22T09:06:16.056Z,101118.87
2019-02-22T09:08:44.407Z,101110.73
2019-02-22T09:11:12.765Z,101115.85
2019-02-22T09:13:43.786Z,101121.81
2019-02-22T09:16:11.305Z,101125.29
2019-02-22T09:18:39.691Z,101122.95
2019-02-22T09:21:08.044Z,101117.95
2019-02-22T09:23:36.505Z,101120.82
2019-02-22T09:26:04.863Z,101129.41
2019-02-22T09:28:33.326Z,101126.29
2019-02-22T09:31:01.825Z,101129.63
2019-02-22T09:33:30.242Z,101132.64
2019-02-22T09:35:58.590Z,101136.39
2019-02-22T09:38:27.797Z,101135.03
2019-02-22T09:40:56.183Z,101138.73
2019-02-22T09:43:24.634Z,101145.07
2019-02-22T09:45:52.987Z,101156.28
2019-02-22T09:48:21.378Z,101158.34
2019-02-22T09:50:49.730Z,101166.74
2019-02-22T09:53:18.116Z,101157.50
2019-02-22T09:55:46.474Z,101160.31
2019-02-22T09:58:14.857Z,101156.66
2019-02-22T10:00:43.208Z,101164.30
2019-02-22T10:03:11.603Z,101163.03
2019-02-22T10:05:39.950Z,101169.94
2019-02-22T10:08:09.559Z,101169.19
2019-02-22T10:10:37.893Z,101173.55
2019-02-22T10:13:06.280Z,101176.88
2019-02-22T10:15:34.635Z,101165.80
2019-02-22T10:18:03.118Z,101170.96
2019-02-22T10:20:31.473Z,101165.89
2019-02-22T10:22:59.865Z,101166.77
2019-02-22T10:25:28.219Z,101166.21
2019-02-22T10:27:56.580Z,101171.55
2019-02-22T10:30:25.451Z,101169.17
2019-02-22T10:32:53.798Z,101170.52
2019-02-22T10:35:22.346Z,101171.86
2019-02-22T10:37:50.764Z,101179.49
2019-02-22T10:40:19.287Z,101180.66
2019-02-22T10:42:47.647Z,101182.15
2019-02-22T10:45:16.156Z,101189.81
2019-02-22T10:47:44.507Z,101186.02
2019-02-22T10:50:12.903Z,101184.77
2019-02-22T10:52:41.240Z,101183.23
2019-02-22T10:55:11.667Z,101178.99
2019-02-22T10:57:40.018Z,101178.52
2019-02-22T11:00:15.191Z,101181.63
2019-02-22T11:02:43.612Z,101184.69
2019-02-22T11:05:12.158Z,101181.15
2019-02-22T11:07:40.519Z,101183.02
2019-02-22T11:10:11.130Z,101178.06
2019-02-22T11:12:39.484Z,101175.20
2019-02-22T11:15:10.182Z,101181.57
2019-02-22T11:17:38.538Z,101176.36
2019-02-22T11:20:09.363Z,101176.58
2019-02-22T11:22:37.858Z,101174.36
2019-02-22T11:25:09.416Z,101177.20
2019-02-22T11:27:37.770Z,101180.88
2019-02-22T11:30:09.495Z,101175.37
2019-02-22T11:32:37.849Z,101170.22
2019-02-22T11:35:08.070Z,101174.63
2019-02-22T11:37:36.422Z,101175.56
2019-02-22T11:40:07.614Z,101179.05
2019-02-22T11:42:35.971Z,101180.88
2019-02-22T11:45:05.500Z,101180.52
2019-02-22T11:47:33.852Z,101176.63
2019-02-22T11:50:02.240Z,101176.39
2019-02-22T11:52:30.592Z,101170.95
2019-02-22T11:54:58.998Z,101175.75
2019-02-22T11:57:27.353Z,101173.22
2019-02-22T11:59:55.733Z,101172.41
2019-02-22T12:02:24.081Z,101172.26
2019-02-22T12:04:52.460Z,101171.84
2019-02-22T12:07:20.820Z,101170.68
2019-02-22T12:09:49.294Z,101167.05
2019-02-22T12:12:17.666Z,101169.31
2019-02-22T12:14:51.484Z,101172.09
2019-02-22T12:17:16.640Z,101166.61
2019-02-22T12:19:45.062Z,101164.17
2019-02-22T12:22:13.447Z,101163.99
2019-02-22T12:24:41.800Z,101166.98
2019-02-22T12:27:10.183Z,101164.10
2019-02-22T12:29:38.547Z,101169.30
2019-02-22T12:32:07.011Z,101161.97
2019-02-22T12:34:35.384Z,101157.63
2019-02-22T12:37:05.023Z,101160.00
2019-02-22T12:39:33.389Z,101166.09
2019-02-22T12:42:01.794Z,101164.45
2019-02-22T12:44:30.164Z,101181.43
2019-02-22T12:46:58.562Z,101174.08
2019-02-22T12:49:26.941Z,101168.93
2019-02-22T12:51:55.540Z,101181.38
2019-02-22T12:54:23.906Z,101174.95
2019-02-22T12:56:57.594Z,101167.87
2019-02-22T12:59:22.803Z,101169.56
2019-02-22T13:01:51.732Z,101180.88
2019-02-22T13:04:20.233Z,101171.55
2019-02-22T13:06:48.802Z,101174.56
2019-02-22T13:09:17.226Z,101167.97
2019-02-22T13:11:45.635Z,101162.16
2019-02-22T13:14:14.010Z,101170.42
2019-02-22T13:16:43.053Z,101170.52
2019-02-22T13:19:11.523Z,101170.52
2019-02-22T13:21:39.925Z,101172.52
2019-02-22T13:24:08.292Z,101169.78
2019-02-22T13:26:36.880Z,101170.70
2019-02-22T13:29:06.299Z,101174.06
2019-02-22T13:31:35.296Z,101176.30
2019-02-22T13:34:04.098Z,101173.78
2019-02-22T13:36:32.721Z,101167.41
2019-02-22T13:39:01.577Z,101170.95
2019-02-22T13:41:30.442Z,101174.72
2019-02-22T13:43:59.108Z,101178.56
2019-02-22T13:46:27.975Z,101174.00
2019-02-22T13:48:58.601Z,101171.17
2019-02-22T13:51:27.416Z,101169.98
2019-02-22T13:54:00.387Z,101172.20
2019-02-22T13:56:30.087Z,101168.00
2019-02-22T13:59:02.158Z,101166.22
2019-02-22T14:01:32.410Z,101169.98
2019-02-22T14:04:04.585Z,101172.09
2019-02-22T14:06:33.510Z,101167.22
2019-02-22T14:09:02.333Z,101164.71
2019-02-22T14:11:31.793Z,101150.77
2019-02-22T14:14:00.503Z,101166.94
2019-02-22T14:16:29.214Z,101167.12
2019-02-22T14:18:57.767Z,101160.62
2019-02-22T14:21:26.952Z,101164.58
2019-02-22T14:23:55.531Z,101169.61
2019-02-22T14:26:27.009Z,101164.27
2019-02-22T14:28:55.473Z,101166.12
2019-02-22T14:31:24.622Z,101167.61
2019-02-22T14:33:53.641Z,101167.12
2019-02-22T14:36:23.414Z,101163.52
2019-02-22T14:38:53.057Z,101174.52
2019-02-22T14:41:24.280Z,101168.73
2019-02-22T14:44:00.068Z,101170.80
2019-02-22T14:46:29.073Z,101174.11
2019-02-22T14:48:58.043Z,101173.62
2019-02-22T14:51:29.280Z,101169.06
2019-02-22T14:53:59.604Z,101173.03
2019-02-22T14:56:31.680Z,101175.81
2019-02-22T14:59:01.903Z,101183.18
2019-02-22T15:01:35.576Z,101169.75
2019-02-22T15:04:06.241Z,101184.50
2019-02-22T15:06:34.997Z,101184.88
2019-02-22T15:09:07.038Z,101191.25
2019-02-22T15:11:35.478Z,101188.53
2019-02-22T15:14:04.262Z,101179.73
2019-02-22T15:16:50.519Z,101175.52
2019-02-22T15:19:22.074Z,101172.23
2019-02-22T15:21:53.371Z,101173.23
2019-02-22T15:24:21.762Z,101177.38
2019-02-22T15:26:54.066Z,101179.08
2019-02-22T15:29:22.738Z,101179.23
2019-02-22T15:31:51.089Z,101179.23
2019-02-22T15:34:19.538Z,101165.42
2019-02-22T15:36:48.307Z,101170.30
2019-02-22T15:39:18.639Z,101164.54
2019-02-22T15:41:47.519Z,101156.39
2019-02-22T15:44:15.935Z,101159.17
2019-02-22T15:46:46.313Z,101152.67
2019-02-22T15:49:14.998Z,101150.39
2019-02-22T15:51:43.314Z,101145.80
2019-02-22T15:54:11.848Z,101150.61
2019-02-22T15:56:40.375Z,101149.36
2019-02-22T15:59:08.883Z,101163.71
2019-02-22T16:01:37.335Z,101160.88
2019-02-22T16:04:23.551Z,101158.84
2019-02-22T16:06:52.043Z,101154.52
2019-02-22T16:09:20.465Z,101159.69
2019-02-22T16:11:48.853Z,101158.70
2019-02-22T16:14:17.200Z,101154.54
2019-02-22T16:16:45.661Z,101152.69
2019-02-22T16:19:14.028Z,101154.25
2019-02-22T16:21:42.416Z,101153.14
2019-02-22T16:24:11.012Z,101147.52
2019-02-22T16:26:39.476Z,101153.81
2019-02-22T16:29:09.380Z,101157.98
2019-02-22T16:31:38.450Z,101155.23
2019-02-22T16:34:06.939Z,101162.98
2019-02-22T16:36:35.469Z,101164.72
2019-02-22T16:39:05.240Z,101163.56
2019-02-22T16:41:33.934Z,101162.38
2019-02-22T16:44:02.358Z,101171.09
2019-02-22T16:46:34.897Z,101155.55
2019-02-22T16:49:00.814Z,101121.66
2019-02-22T16:51:29.282Z,101183.66
2019-02-22T16:53:57.633Z,101176.13
2019-02-22T16:56:26.014Z,101178.43
2019-02-22T16:58:54.435Z,101179.18
2019-02-22T17:01:22.890Z,101181.59
2019-02-22T17:03:51.829Z,101182.56
2019-02-22T17:06:20.554Z,101188.53
2019-02-22T17:08:49.005Z,101191.11
2019-02-22T17:11:21.726Z,101195.27
2019-02-22T17:13:50.728Z,101197.22
2019-02-22T17:16:21.105Z,101193.77
2019-02-22T17:18:50.271Z,101187.70
2019-02-22T17:21:18.854Z,101193.73
2019-02-22T17:23:47.345Z,101198.44
2019-02-22T17:26:15.803Z,101198.55
2019-02-22T17:28:44.339Z,101200.05
2019-02-22T17:31:12.920Z,101201.09
2019-02-22T17:33:41.858Z,101206.77
2019-02-22T17:36:26.956Z,101210.56
2019-02-22T17:38:49.577Z,101207.69
2019-02-22T17:41:18.411Z,101217.76
2019-02-22T17:43:47.833Z,101221.58
2019-02-22T17:46:16.267Z,101220.50
2019-02-22T17:48:48.288Z,101223.05
2019-02-22T17:51:17.129Z,101218.55
2019-02-22T17:53:45.524Z,101225.20
2019-02-22T17:56:13.899Z,101229.05
2019-02-22T17:58:44.206Z,101233.19
2019-02-22T18:01:12.934Z,101232.47
2019-02-22T18:03:41.818Z,101235.30
2019-02-22T18:06:11.022Z,101238.50
2019-02-22T18:08:40.198Z,101245.95
2019-02-22T18:11:10.613Z,101250.81
2019-02-22T18:13:39.812Z,101250.12
2019-02-22T18:16:09.862Z,101255.52
2019-02-22T18:18:38.677Z,101259.14
2019-02-22T18:21:09.708Z,101258.58
2019-02-22T18:23:38.767Z,101260.78
2019-02-22T18:26:07.451Z,101260.78
2019-02-22T18:28:39.019Z,101262.55
2019-02-22T18:31:07.880Z,101264.03
2019-02-22T18:33:37.970Z,101267.97
2019-02-22T18:36:25.375Z,101273.63
2019-02-22T18:38:57.504Z,101262.80
2019-02-22T18:41:25.978Z,101264.50
2019-02-22T18:43:54.652Z,101258.58
2019-02-22T18:46:24.122Z,101266.93
2019-02-22T18:48:57.820Z,101260.95
2019-02-22T18:51:27.798Z,101277.02
2019-02-22T18:54:00.795Z,101268.97
2019-02-22T18:56:29.179Z,101267.45
2019-02-22T18:58:59.774Z,101269.84
2019-02-22T19:01:28.784Z,101267.97
2019-02-22T19:03:58.778Z,101268.00
2019-02-22T19:06:27.264Z,101275.08
2019-02-22T19:09:00.017Z,101281.18
2019-02-22T19:11:28.589Z,101278.70
2019-02-22T19:13:57.083Z,101281.73
2019-02-22T19:16:26.671Z,101281.51
2019-02-22T19:18:55.660Z,101283.83
2019-02-22T19:21:24.623Z,101279.00
2019-02-22T19:23:53.062Z,101283.02
2019-02-22T19:26:21.420Z,101289.12
2019-02-22T19:28:49.882Z,101287.81
2019-02-22T19:31:18.348Z,101281.47
2019-02-22T19:33:49.620Z,101283.98
2019-02-22T19:36:17.518Z,101286.55
2019-02-22T19:38:45.947Z,101293.81
2019-02-22T19:41:14.452Z,101290.53
2019-02-22T19:43:42.841Z,101294.08
2019-02-22T19:46:11.374Z,101291.95
2019-02-22T19:48:39.806Z,101298.79
2019-02-22T19:51:08.207Z,101295.58
2019-02-22T19:53:36.563Z,101299.69
2019-02-22T19:56:05.032Z,101303.42
2019-02-22T19:58:33.444Z,101302.89
2019-02-22T20:01:01.933Z,101306.69
2019-02-22T20:03:30.288Z,101306.86
2019-02-22T20:05:58.753Z,101311.37
2019-02-22T20:08:29.518Z,101302.89
2019-02-22T20:10:58.387Z,101307.05
2019-02-22T20:13:28.290Z,101320.75
2019-02-22T20:15:56.901Z,101314.65
2019-02-22T20:18:25.921Z,101320.94
2019-02-22T20:20:54.587Z,101317.91
2019-02-22T20:23:23.027Z,101327.79
2019-02-22T20:25:51.926Z,101327.34
2019-02-22T20:28:20.639Z,101326.05
2019-02-22T20:30:51.259Z,101330.62
2019-02-22T20:33:21.656Z,101335.33
2019-02-22T20:35:50.121Z,101337.73
2019-02-22T20:38:19.662Z,101331.05
2019-02-22T20:40:50.165Z,101332.73
2019-02-22T20:43:20.180Z,101339.88
2019-02-22T20:45:50.778Z,101339.23
2019-02-22T20:48:19.958Z,101343.58
2019-02-22T20:50:48.477Z,101351.49
2019-02-22T20:53:16.872Z,101349.08
2019-02-22T20:55:45.532Z,101359.63
2019-02-22T20:58:14.020Z,101368.04
2019-02-22T21:00:42.730Z,101356.14
2019-02-22T21:03:11.761Z,101356.03
2019-02-22T21:05:40.775Z,101360.96
2019-02-22T21:08:09.234Z,101354.47
2019-02-22T21:10:37.599Z,101356.13
2019-02-22T21:13:06.061Z,101356.55
2019-02-22T21:15:34.574Z,101348.72
2019-02-22T21:18:03.049Z,101350.41
2019-02-22T21:20:31.464Z,101351.19
2019-02-22T21:22:59.924Z,101348.48
2019-02-22T21:25:28.345Z,101340.38
2019-02-22T21:27:56.825Z,101334.77
2019-02-22T21:30:25.192Z,101332.36
2019-02-22T21:32:55.087Z,101334.60
2019-02-22T21:35:23.992Z,101339.14
2019-02-22T21:37:52.858Z,101339.78
2019-02-22T21:40:21.289Z,101342.31
2019-02-22T21:42:49.685Z,101338.81
2019-02-22T21:45:18.121Z,101335.02
2019-02-22T21:47:54.591Z,101337.14
2019-02-22T21:50:17.652Z,101348.45
2019-02-22T21:52:46.050Z,101331.84
2019-02-22T21:55:15.362Z,101329.23
2019-02-22T21:57:45.338Z,101320.98
2019-02-22T22:00:16.205Z,101324.03
2019-02-22T22:02:46.275Z,101314.50
2019-02-22T22:05:17.675Z,101316.54
2019-02-22T22:07:48.489Z,101314.81
2019-02-22T22:10:19.199Z,101313.44
2019-02-22T22:12:48.154Z,101315.28
2019-02-22T22:15:17.053Z,101317.39
2019-02-22T22:17:46.629Z,101320.31
2019-02-22T22:20:15.657Z,101320.45
2019-02-22T22:22:44.295Z,101311.28
2019-02-22T22:25:14.108Z,101309.07
2019-02-22T22:27:42.965Z,101303.88
2019-02-22T22:30:14.718Z,101302.97
2019-02-22T22:32:44.548Z,101296.01
2019-02-22T22:35:19.359Z,101301.69
2019-02-22T22:37:49.313Z,101299.92
2019-02-22T22:40:17.862Z,101299.44
2019-02-22T22:42:46.540Z,101302.63
2019-02-22T22:45:17.308Z,101302.56
2019-02-22T22:47:45.935Z,101296.06
2019-02-22T22:50:18.234Z,101299.59
2019-02-22T22:52:46.662Z,101295.42
2019-02-22T22:55:15.458Z,101294.42
2019-02-22T22:57:44.404Z,101293.95
2019-02-22T23:00:35.711Z,101292.77
2019-02-22T23:03:04.650Z,101295.84
2019-02-22T23:05:34.830Z,101301.84
2019-02-22T23:08:03.266Z,101293.50
2019-02-22T23:10:31.987Z,101290.08
2019-02-22T23:13:00.965Z,101298.71
2019-02-22T23:15:29.521Z,101305.61
2019-02-22T23:17:58.256Z,101307.44
2019-02-22T23:20:26.952Z,101315.28
2019-02-22T23:22:57.008Z,101311.48
2019-02-22T23:25:28.381Z,101318.85
2019-02-22T23:27:56.918Z,101322.63
2019-02-22T23:30:25.716Z,101326.43
2019-02-22T23:32:54.510Z,101327.42
2019-02-22T23:35:26.528Z,101324.33
2019-02-22T23:37:56.928Z,101327.42
2019-02-22T23:40:25.580Z,101329.56
2019-02-22T23:42:57.386Z,101335.97
2019-02-22T23:45:28.570Z,101335.88
2019-02-22T23:47:57.287Z,101336.24
2019-02-22T23:50:30.180Z,101345.37
2019-02-22T23:52:59.020Z,101348.78
2019-02-22T23:55:29.323Z,101345.70
2019-02-22T23:57:58.146Z,101340.02
